首页
METAR-TAF:

METAR-TAF

机场 :

劍橋, 英格兰

纬度: 52-12N, 经度: 000-11E, 海拔: 15米

当前天气观测

该预报发布于11小时和6分钟前的17:50 UTC
风速3节,风向
温度 2°C
湿度 87%
气压 993 hPa
能见度10公里或以上
少量云层高于3500英尺

METAR: EGSC 221750Z 19003KT 9999 FEW035 02/M00 Q0993

时间: 04:56 (04:56 UTC)

预报

该预报发布于14小时和59分钟前的13:57 UTC
预报有效从22日的 15点(UTC)到 22日的 19点(UTC)
风速8节,风向西转西南
能见度10公里或以上
少量云层高于3000英尺
几率 30% :
短暂存在
从 22日的 18点(UTC)到 22日的 19点(UTC)
能見度: 6000
多云层高于1200英尺
小阵雨, 雪

TAF: EGSC 221357Z 2215/2219 24008KT 9999 FEW030 PROB30 TEMPO 2218/2219 6000 -SHRASN BKN012

超过4000个机场的气象观测和天气预报(METAR&TAF报告)。

可查询的气象台以黄色和红色小点在地图上表示。

将鼠标移到小点上方,可查看气象台名称。

然后点击查看天气观测和预报。

如需切换地图:点击带黑十字的绿色按钮放大地图;点击带横线的绿色按钮缩小地图;或者点击绿色箭头查看邻近地区的地图。


METAR-TAF: